createdAt,value
2023-05-10T00:03:51.638Z,15.60
2023-05-10T00:07:53.492Z,15.60
2023-05-10T00:11:55.513Z,15.50
2023-05-10T00:15:57.474Z,15.30
2023-05-10T00:19:59.498Z,15.40
2023-05-10T00:24:01.266Z,15.40
2023-05-10T00:28:02.853Z,15.40
2023-05-10T00:32:05.082Z,15.20
2023-05-10T00:36:08.367Z,15.30
2023-05-10T00:40:10.264Z,15.40
2023-05-10T00:44:11.534Z,15.40
2023-05-10T00:48:13.284Z,15.60
2023-05-10T00:52:14.548Z,15.50
2023-05-10T00:56:16.196Z,15.50
2023-05-10T01:00:19.333Z,15.30
2023-05-10T01:04:22.573Z,15.20
2023-05-10T01:08:24.421Z,15.00
2023-05-10T01:12:26.074Z,15.10
2023-05-10T01:16:30.026Z,15.20
2023-05-10T01:20:34.996Z,14.90
2023-05-10T01:25:00.926Z,14.90
2023-05-10T01:29:21.162Z,15.00
2023-05-10T01:33:29.425Z,15.10
2023-05-10T01:37:49.740Z,15.20
2023-05-10T01:42:09.557Z,15.10
2023-05-10T01:46:17.519Z,15.30
2023-05-10T01:50:22.381Z,15.20
2023-05-10T01:54:24.925Z,14.90
2023-05-10T01:58:29.980Z,15.10
2023-05-10T02:02:34.057Z,14.90
2023-05-10T02:06:36.327Z,15.00
2023-05-10T02:10:39.281Z,15.30
2023-05-10T02:14:42.531Z,15.20
2023-05-10T02:18:45.200Z,15.00
2023-05-10T02:22:48.955Z,15.10
2023-05-10T02:26:53.613Z,15.10
2023-05-10T02:30:55.572Z,15.10
2023-05-10T02:34:57.858Z,15.10
2023-05-10T02:39:02.866Z,15.10
2023-05-10T02:43:06.121Z,15.20
2023-05-10T02:47:07.490Z,15.00
2023-05-10T02:51:09.876Z,15.10
2023-05-10T02:55:15.426Z,15.20
2023-05-10T02:59:16.673Z,15.10
2023-05-10T03:03:17.724Z,15.10
2023-05-10T03:07:21.369Z,15.20
2023-05-10T03:11:48.033Z,15.20
2023-05-10T03:16:13.037Z,15.10
2023-05-10T03:20:20.960Z,15.10
2023-05-10T03:24:25.523Z,14.90
2023-05-10T03:28:27.881Z,15.00
2023-05-10T03:32:31.856Z,15.10
2023-05-10T03:36:33.206Z,15.10
2023-05-10T03:40:34.249Z,15.00
2023-05-10T03:44:35.500Z,15.00
2023-05-10T03:48:36.664Z,15.20
2023-05-10T03:52:39.422Z,15.00
2023-05-10T03:56:40.676Z,14.90
2023-05-10T04:00:43.726Z,14.80
2023-05-10T04:04:44.890Z,15.00
2023-05-10T04:08:46.034Z,15.10
2023-05-10T04:12:47.224Z,15.30
2023-05-10T04:16:48.415Z,15.30
2023-05-10T04:20:49.831Z,15.20
2023-05-10T04:24:50.993Z,15.30
2023-05-10T04:28:52.145Z,15.40
2023-05-10T04:32:53.257Z,15.20
2023-05-10T04:36:54.356Z,15.30
2023-05-10T04:41:06.828Z,15.20
2023-05-10T04:45:09.907Z,15.20
2023-05-10T04:49:11.154Z,15.10
2023-05-10T04:53:14.613Z,15.10
2023-05-10T04:57:16.687Z,15.40
2023-05-10T05:01:17.889Z,15.40
2023-05-10T05:05:19.040Z,15.40
2023-05-10T05:09:20.189Z,15.50
2023-05-10T05:13:21.367Z,15.30
2023-05-10T05:17:22.533Z,15.30
2023-05-10T05:21:24.305Z,15.50
2023-05-10T05:25:25.462Z,15.50
2023-05-10T05:29:26.628Z,15.20
2023-05-10T05:33:27.769Z,15.30
2023-05-10T05:37:28.956Z,15.20
2023-05-10T05:41:30.091Z,15.30
2023-05-10T05:45:31.262Z,15.20
2023-05-10T05:49:32.810Z,15.20
2023-05-10T05:53:33.966Z,15.30
2023-05-10T05:57:35.143Z,15.30
2023-05-10T06:01:36.385Z,15.40
2023-05-10T06:05:37.539Z,15.60
2023-05-10T06:09:38.695Z,15.40
2023-05-10T06:13:39.937Z,15.50
2023-05-10T06:17:41.132Z,15.50
2023-05-10T06:21:42.340Z,15.70
2023-05-10T06:25:43.625Z,15.40
2023-05-10T06:29:44.997Z,15.50
2023-05-10T06:33:47.408Z,15.50
2023-05-10T06:37:48.843Z,15.60
2023-05-10T06:41:50.005Z,15.60
2023-05-10T06:45:51.590Z,15.50
2023-05-10T06:49:52.771Z,15.80
2023-05-10T06:53:54.400Z,15.90
2023-05-10T06:57:55.971Z,15.70
2023-05-10T07:01:57.203Z,15.80
2023-05-10T07:06:03.465Z,15.80
2023-05-10T07:10:05.401Z,15.90
2023-05-10T07:14:06.560Z,16.10
2023-05-10T07:18:07.822Z,16.20
2023-05-10T07:22:09.243Z,16.10
2023-05-10T07:26:10.841Z,16.30
2023-05-10T07:30:13.265Z,16.40
2023-05-10T07:34:14.427Z,16.20
2023-05-10T07:38:15.779Z,16.40
2023-05-10T07:42:16.976Z,16.40
2023-05-10T07:46:19.666Z,16.70
2023-05-10T07:50:21.590Z,16.80
2023-05-10T07:54:22.994Z,16.50
2023-05-10T07:58:24.949Z,16.70
2023-05-10T08:02:26.155Z,16.70
2023-05-10T08:06:30.313Z,17.10
2023-05-10T08:10:33.575Z,16.80
2023-05-10T08:14:36.814Z,17.10
2023-05-10T08:18:38.723Z,17.40
2023-05-10T08:22:39.866Z,17.60
2023-05-10T08:26:41.000Z,18.00
2023-05-10T08:30:42.088Z,17.90
2023-05-10T08:34:43.242Z,17.80
2023-05-10T08:38:45.816Z,17.80
2023-05-10T08:42:51.474Z,18.00
2023-05-10T08:46:56.394Z,18.30
2023-05-10T08:51:01.967Z,18.20
2023-05-10T08:55:03.469Z,18.40
2023-05-10T08:59:04.730Z,18.50
2023-05-10T09:03:06.689Z,18.50
2023-05-10T09:07:07.930Z,18.50
2023-05-10T09:11:10.206Z,17.60
2023-05-10T09:15:12.408Z,17.40
2023-05-10T09:19:14.228Z,17.30
2023-05-10T09:23:15.328Z,17.30
2023-05-10T09:27:16.503Z,17.00
2023-05-10T09:31:17.693Z,17.40
2023-05-10T09:35:20.931Z,17.60
2023-05-10T09:39:31.161Z,17.80
2023-05-10T09:43:36.148Z,17.80
2023-05-10T09:47:37.774Z,17.80
2023-05-10T09:51:38.866Z,17.80
2023-05-10T09:55:47.067Z,17.90
2023-05-10T09:59:48.698Z,18.30
2023-05-10T10:03:50.314Z,18.50
2023-05-10T10:07:52.669Z,18.70
2023-05-10T10:11:54.638Z,18.40
2023-05-10T10:15:55.821Z,18.10
2023-05-10T10:19:58.866Z,17.60
2023-05-10T10:24:00.007Z,17.40
2023-05-10T10:28:23.118Z,17.10
2023-05-10T10:32:40.140Z,17.30
2023-05-10T10:36:48.722Z,17.40
2023-05-10T10:41:11.655Z,17.70
2023-05-10T10:45:13.902Z,17.80
2023-05-10T10:49:15.747Z,17.80
2023-05-10T10:53:17.189Z,18.00
2023-05-10T10:57:22.803Z,18.20
2023-05-10T11:01:24.034Z,18.40
2023-05-10T11:05:43.928Z,18.50
2023-05-10T11:09:50.911Z,18.30
2023-05-10T11:13:53.182Z,18.20
2023-05-10T11:17:55.411Z,18.20
2023-05-10T11:22:14.633Z,18.00
2023-05-10T11:26:15.769Z,17.90
2023-05-10T11:30:17.930Z,17.90
2023-05-10T11:34:29.830Z,18.30
2023-05-10T11:38:33.196Z,18.80
2023-05-10T11:42:35.010Z,18.80
2023-05-10T11:46:37.820Z,19.20
2023-05-10T11:50:39.464Z,18.90
2023-05-10T11:54:55.731Z,19.50
2023-05-10T11:58:58.120Z,19.60
2023-05-10T12:03:01.625Z,19.60
2023-05-10T12:07:03.032Z,19.70
2023-05-10T12:11:06.931Z,20.20
2023-05-10T12:15:20.311Z,20.40
2023-05-10T12:19:21.596Z,20.70
2023-05-10T12:23:22.728Z,20.70
2023-05-10T12:27:23.871Z,21.20
2023-05-10T12:31:25.267Z,21.10
2023-05-10T12:35:26.592Z,20.50
2023-05-10T12:39:42.498Z,21.00
2023-05-10T12:43:43.991Z,21.30
2023-05-10T12:47:45.272Z,21.50
2023-05-10T12:51:46.544Z,21.50
2023-05-10T12:55:47.707Z,21.10
2023-05-10T12:59:48.878Z,20.70
2023-05-10T13:03:50.922Z,20.60
2023-05-10T13:07:52.155Z,20.60
2023-05-10T13:11:56.103Z,20.80
2023-05-10T13:15:57.219Z,21.00
2023-05-10T13:19:58.391Z,21.20
2023-05-10T13:24:00.673Z,21.30
2023-05-10T13:28:02.752Z,21.70
2023-05-10T13:32:04.234Z,21.80
2023-05-10T13:36:06.466Z,21.70
2023-05-10T13:40:08.358Z,21.00
2023-05-10T13:44:10.140Z,21.20
2023-05-10T13:48:11.502Z,20.90
2023-05-10T13:52:12.825Z,21.00
2023-05-10T13:56:14.608Z,20.90
2023-05-10T14:00:16.820Z,20.60
2023-05-10T14:04:18.002Z,20.50
2023-05-10T14:08:19.186Z,20.50
2023-05-10T14:12:20.307Z,20.50
2023-05-10T14:16:21.748Z,20.70
2023-05-10T14:20:22.852Z,21.10
2023-05-10T14:24:24.039Z,21.40
2023-05-10T14:28:25.403Z,21.40
2023-05-10T14:32:27.775Z,21.10
2023-05-10T14:36:29.399Z,21.30
2023-05-10T14:40:30.884Z,21.40
2023-05-10T14:44:32.308Z,21.40
2023-05-10T14:48:33.870Z,21.60
2023-05-10T14:52:35.341Z,21.70
2023-05-10T14:56:37.681Z,21.90
2023-05-10T15:00:38.918Z,20.80
2023-05-10T15:04:40.575Z,20.60
2023-05-10T15:08:42.122Z,21.10
2023-05-10T15:12:43.188Z,20.90
2023-05-10T15:16:44.452Z,21.10
2023-05-10T15:20:45.608Z,21.20
2023-05-10T15:24:48.374Z,21.50
2023-05-10T15:28:49.488Z,21.90
2023-05-10T15:32:51.120Z,21.10
2023-05-10T15:36:52.404Z,21.00
2023-05-10T15:40:57.693Z,21.30
2023-05-10T15:44:59.053Z,21.60
2023-05-10T15:49:00.299Z,21.70
2023-05-10T15:53:01.387Z,21.60
2023-05-10T15:57:02.684Z,21.50
2023-05-10T16:01:05.285Z,21.60
2023-05-10T16:05:06.972Z,21.30
2023-05-10T16:09:08.055Z,21.00
2023-05-10T16:13:09.214Z,20.90
2023-05-10T16:17:11.053Z,20.80
2023-05-10T16:21:12.430Z,20.70
2023-05-10T16:25:13.856Z,20.80
2023-05-10T16:29:15.124Z,20.60
2023-05-10T16:33:16.477Z,20.50
2023-05-10T16:37:17.629Z,20.30
2023-05-10T16:41:18.811Z,20.10
2023-05-10T16:45:19.962Z,19.70
2023-05-10T16:53:22.820Z,19.60
2023-05-10T16:57:24.700Z,19.60
2023-05-10T17:01:27.020Z,19.60
2023-05-10T17:05:28.738Z,19.40
2023-05-10T17:09:30.002Z,19.40
2023-05-10T17:13:31.378Z,19.00
2023-05-10T17:17:32.657Z,19.40
2023-05-10T17:21:33.820Z,19.10
2023-05-10T17:25:35.563Z,19.00
2023-05-10T17:29:36.828Z,19.10
2023-05-10T17:33:37.971Z,19.30
2023-05-10T17:37:39.246Z,19.10
2023-05-10T17:41:40.567Z,19.20
2023-05-10T17:45:41.718Z,19.30
2023-05-10T17:49:44.238Z,19.40
2023-05-10T17:53:45.510Z,19.60
2023-05-10T17:57:47.578Z,18.90
2023-05-10T18:01:49.746Z,18.50
2023-05-10T18:05:51.034Z,18.20
2023-05-10T18:09:54.052Z,18.10
2023-05-10T18:13:55.428Z,18.10
2023-05-10T18:17:56.633Z,18.00
2023-05-10T18:21:57.860Z,17.90
2023-05-10T18:25:59.111Z,17.70
2023-05-10T18:30:00.262Z,17.80
2023-05-10T18:34:01.431Z,18.00
2023-05-10T18:38:02.586Z,18.10
2023-05-10T18:42:05.100Z,18.10
2023-05-10T18:46:06.795Z,18.00
2023-05-10T18:50:09.427Z,17.90
2023-05-10T18:54:10.904Z,17.80
2023-05-10T18:58:12.192Z,17.70
2023-05-10T19:02:13.828Z,17.50
2023-05-10T19:06:15.542Z,17.30
2023-05-10T19:10:16.841Z,17.30
2023-05-10T19:14:18.291Z,17.30
2023-05-10T19:18:21.589Z,17.00
2023-05-10T19:22:36.162Z,17.00
2023-05-10T19:26:26.019Z,16.90
2023-05-10T19:30:28.064Z,16.80
2023-05-10T19:34:29.299Z,16.70
2023-05-10T19:38:30.531Z,16.60
2023-05-10T19:42:31.739Z,16.60
2023-05-10T19:46:32.989Z,16.50
2023-05-10T19:50:34.160Z,16.40
2023-05-10T19:54:35.470Z,16.30
2023-05-10T19:58:36.682Z,16.10
2023-05-10T20:02:37.986Z,15.90
2023-05-10T20:06:39.514Z,15.80
2023-05-10T20:10:40.758Z,15.70
2023-05-10T20:14:42.219Z,15.80
2023-05-10T20:18:44.449Z,15.70
2023-05-10T20:22:47.853Z,15.70
2023-05-10T20:26:49.081Z,15.70
2023-05-10T20:30:53.135Z,15.70
2023-05-10T20:34:54.771Z,15.60
2023-05-10T20:38:56.220Z,15.70
2023-05-10T20:42:57.545Z,15.70
2023-05-10T20:46:58.918Z,15.50
2023-05-10T20:51:01.546Z,15.30
2023-05-10T20:55:03.064Z,15.30
2023-05-10T20:59:04.372Z,15.10
2023-05-10T21:03:05.630Z,15.10
2023-05-10T21:07:06.837Z,14.80
2023-05-10T21:11:08.184Z,15.20
2023-05-10T21:15:10.118Z,15.30
2023-05-10T21:19:11.354Z,15.20
2023-05-10T21:23:12.572Z,15.40
2023-05-10T21:27:13.817Z,15.40
2023-05-10T21:31:15.352Z,15.20
2023-05-10T21:35:16.975Z,15.20
2023-05-10T21:39:18.194Z,15.20
2023-05-10T21:43:19.681Z,15.40
2023-05-10T21:47:21.093Z,15.40
2023-05-10T21:51:22.468Z,15.40
2023-05-10T21:55:23.903Z,15.30
2023-05-10T21:59:25.122Z,15.30
2023-05-10T22:03:26.423Z,15.30
2023-05-10T22:07:27.752Z,15.20
2023-05-10T22:11:29.127Z,15.30
2023-05-10T22:15:32.304Z,15.20
2023-05-10T22:19:34.382Z,15.30
2023-05-10T22:23:35.640Z,15.30
2023-05-10T22:27:36.930Z,15.20
2023-05-10T22:31:38.324Z,14.90
2023-05-10T22:35:39.758Z,15.00
2023-05-10T22:39:41.059Z,14.90
2023-05-10T22:43:42.272Z,14.90
2023-05-10T22:47:43.574Z,14.60
2023-05-10T22:51:44.829Z,14.40
2023-05-10T22:55:46.672Z,14.20
2023-05-10T22:59:48.207Z,14.20
2023-05-10T23:03:49.733Z,13.80
2023-05-10T23:07:52.860Z,14.00
2023-05-10T23:11:54.069Z,14.20
2023-05-10T23:15:55.344Z,14.30
2023-05-10T23:19:56.548Z,14.20
2023-05-10T23:23:57.798Z,14.10
2023-05-10T23:27:59.060Z,14.10
2023-05-10T23:32:00.423Z,14.10
2023-05-10T23:36:01.655Z,14.10
2023-05-10T23:40:03.625Z,14.10
2023-05-10T23:44:04.851Z,13.80
2023-05-10T23:48:06.088Z,14.00
2023-05-10T23:52:07.789Z,14.00
2023-05-10T23:56:08.991Z,14.00
